createdAt,value
2022-08-22T00:01:57.303Z,17.79
2022-08-22T00:02:59.074Z,17.95
2022-08-22T00:03:03.229Z,25.40
2022-08-22T00:03:09.032Z,19.82
2022-08-22T00:03:11.472Z,20.96
2022-08-22T00:03:12.734Z,17.92
2022-08-22T00:04:35.192Z,17.69
2022-08-22T00:07:08.782Z,17.60
2022-08-22T00:09:45.283Z,17.57
2022-08-22T00:12:32.629Z,17.51
2022-08-22T00:15:31.701Z,17.44
2022-08-22T00:18:50.107Z,17.52
2022-08-22T00:21:23.333Z,17.94
2022-08-22T00:24:13.910Z,17.52
2022-08-22T00:26:49.314Z,17.41
2022-08-22T00:29:24.542Z,17.35
2022-08-22T00:32:02.044Z,17.97
2022-08-22T00:34:49.120Z,17.70
2022-08-22T00:37:21.217Z,17.45
2022-08-22T00:40:03.263Z,17.34
2022-08-22T00:43:01.049Z,17.30
2022-08-22T00:46:04.220Z,17.25
2022-08-22T00:49:14.945Z,17.23
2022-08-22T00:52:00.817Z,17.18
2022-08-22T00:54:35.315Z,17.16
2022-08-22T00:57:18.653Z,17.68
2022-08-22T01:00:13.678Z,17.38
2022-08-22T01:03:08.574Z,17.19
2022-08-22T01:05:51.544Z,17.10
2022-08-22T01:08:28.662Z,17.07
2022-08-22T01:11:11.209Z,17.04
2022-08-22T01:14:06.545Z,17.01
2022-08-22T01:17:00.690Z,17.57
2022-08-22T01:19:55.764Z,17.24
2022-08-22T01:22:41.861Z,17.05
2022-08-22T01:25:36.630Z,16.96
2022-08-22T01:28:12.922Z,16.90
2022-08-22T01:31:37.916Z,16.84
2022-08-22T01:34:19.876Z,16.81
2022-08-22T01:37:17.943Z,17.42
2022-08-22T01:40:22.230Z,16.99
2022-08-22T01:43:06.957Z,16.85
2022-08-22T01:45:57.107Z,16.78
2022-08-22T01:48:47.704Z,16.75
2022-08-22T01:51:27.122Z,16.70
2022-08-22T01:54:10.824Z,16.67
2022-08-22T01:56:45.950Z,17.22
2022-08-22T01:59:50.824Z,16.82
2022-08-22T02:02:42.321Z,16.69
2022-08-22T02:05:32.044Z,16.62
2022-08-22T02:08:22.285Z,16.58
2022-08-22T02:11:09.396Z,16.53
2022-08-22T02:14:07.245Z,16.92
2022-08-22T02:16:45.075Z,16.84
2022-08-22T02:19:15.277Z,16.57
2022-08-22T02:21:50.606Z,16.47
2022-08-22T02:24:59.381Z,16.40
2022-08-22T02:27:52.418Z,16.36
2022-08-22T02:30:25.850Z,16.30
2022-08-22T02:33:13.266Z,16.26
2022-08-22T02:35:55.381Z,16.60
2022-08-22T02:38:42.997Z,16.66
2022-08-22T02:41:22.203Z,16.35
2022-08-22T02:43:54.350Z,16.23
2022-08-22T02:46:40.826Z,16.14
2022-08-22T02:49:17.225Z,16.09
2022-08-22T02:51:54.603Z,16.05
2022-08-22T02:54:52.621Z,16.00
2022-08-22T02:57:39.444Z,16.78
2022-08-22T03:00:30.892Z,16.33
2022-08-22T03:03:03.408Z,16.09
2022-08-22T03:05:36.583Z,16.03
2022-08-22T03:08:14.263Z,15.95
2022-08-22T03:10:47.181Z,15.92
2022-08-22T03:13:24.972Z,15.87
2022-08-22T03:16:04.786Z,15.83
2022-08-22T03:19:27.789Z,16.35
2022-08-22T03:22:02.530Z,16.16
2022-08-22T03:24:48.733Z,15.95
2022-08-22T03:27:32.931Z,15.88
2022-08-22T03:30:23.244Z,15.82
2022-08-22T03:32:50.801Z,15.79
2022-08-22T03:35:35.135Z,15.76
2022-08-22T03:38:28.784Z,15.71
2022-08-22T03:41:20.584Z,15.82
2022-08-22T03:44:18.500Z,16.19
2022-08-22T03:47:14.561Z,15.83
2022-08-22T03:49:41.925Z,15.72
2022-08-22T03:53:05.724Z,15.65
2022-08-22T03:55:47.050Z,15.62
2022-08-22T03:58:31.418Z,15.57
2022-08-22T04:01:17.221Z,15.54
2022-08-22T04:04:09.753Z,15.52
2022-08-22T04:07:00.746Z,16.24
2022-08-22T04:10:05.482Z,15.70
2022-08-22T04:13:05.980Z,15.58
2022-08-22T04:16:04.293Z,15.52
2022-08-22T04:18:52.710Z,15.50
2022-08-22T04:21:48.337Z,15.47
2022-08-22T04:24:43.324Z,15.98
2022-08-22T04:27:33.123Z,15.72
2022-08-22T04:30:31.772Z,15.54
2022-08-22T04:33:14.756Z,15.47
2022-08-22T04:35:54.200Z,15.43
2022-08-22T04:38:31.465Z,15.42
2022-08-22T04:41:07.657Z,15.40
2022-08-22T04:43:45.354Z,15.37
2022-08-22T04:46:41.340Z,15.64
2022-08-22T04:49:21.096Z,15.98
2022-08-22T04:52:09.685Z,15.56
2022-08-22T04:55:05.869Z,15.46
2022-08-22T04:57:46.709Z,15.44
2022-08-22T05:00:16.304Z,15.45
2022-08-22T05:02:50.620Z,15.46
2022-08-22T05:05:23.793Z,15.48
2022-08-22T05:08:03.434Z,15.63
2022-08-22T05:10:42.804Z,16.28
2022-08-22T05:13:22.273Z,15.82
2022-08-22T05:15:54.568Z,15.73
2022-08-22T05:18:32.127Z,15.72
2022-08-22T05:21:04.513Z,15.73
2022-08-22T05:23:52.439Z,15.77
2022-08-22T05:26:21.207Z,15.81
2022-08-22T05:28:53.661Z,16.45
2022-08-22T05:31:35.264Z,16.45
2022-08-22T05:34:11.554Z,16.19
2022-08-22T05:36:45.912Z,16.16
2022-08-22T05:39:18.125Z,16.22
2022-08-22T05:41:46.975Z,16.24
2022-08-22T05:44:23.410Z,16.34
2022-08-22T05:47:00.892Z,17.15
2022-08-22T05:49:46.239Z,16.85
2022-08-22T05:52:35.294Z,16.71
2022-08-22T05:55:26.145Z,16.69
2022-08-22T05:58:25.926Z,16.73
2022-08-22T06:01:08.399Z,16.83
2022-08-22T06:03:40.626Z,17.16
2022-08-22T06:06:18.311Z,17.91
2022-08-22T06:09:12.806Z,17.46
2022-08-22T06:12:21.863Z,19.00
2022-08-22T06:14:52.854Z,17.95
2022-08-22T06:17:32.939Z,17.75
2022-08-22T06:20:01.064Z,17.76
2022-08-22T06:22:35.512Z,17.81
2022-08-22T06:25:18.897Z,17.90
2022-08-22T06:27:49.553Z,18.03
2022-08-22T06:30:19.564Z,18.09
2022-08-22T06:33:00.162Z,18.19
2022-08-22T06:35:55.394Z,18.31
2022-08-22T06:38:29.746Z,18.42
2022-08-22T06:41:00.807Z,20.11
2022-08-22T06:43:37.191Z,19.41
2022-08-22T06:46:06.683Z,19.14
2022-08-22T06:48:36.474Z,19.15
2022-08-22T06:51:07.426Z,20.60
2022-08-22T06:53:45.886Z,19.87
2022-08-22T06:56:25.696Z,19.62
2022-08-22T06:58:58.960Z,20.17
2022-08-22T07:01:38.297Z,21.20
2022-08-22T07:04:09.667Z,20.41
2022-08-22T07:06:43.884Z,20.29
2022-08-22T07:09:20.401Z,20.50
2022-08-22T07:11:49.314Z,22.42
2022-08-22T07:14:25.176Z,21.46
2022-08-22T07:17:01.375Z,20.98
2022-08-22T07:19:33.197Z,20.99
2022-08-22T07:22:22.055Z,21.96
2022-08-22T07:24:57.514Z,22.37
2022-08-22T07:27:48.815Z,21.88
2022-08-22T07:30:28.239Z,21.81
2022-08-22T07:33:25.822Z,21.92
2022-08-22T07:35:59.493Z,23.63
2022-08-22T07:38:43.075Z,23.43
2022-08-22T07:41:20.348Z,23.97
2022-08-22T07:43:52.627Z,25.16
2022-08-22T07:46:36.054Z,24.87
2022-08-22T07:49:14.470Z,24.12
2022-08-22T07:51:56.070Z,23.94
2022-08-22T07:54:35.642Z,25.33
2022-08-22T07:57:15.264Z,25.75
2022-08-22T07:59:55.321Z,25.03
2022-08-22T08:02:24.929Z,26.86
2022-08-22T08:04:56.829Z,27.44
2022-08-22T08:07:27.755Z,27.78
2022-08-22T08:10:11.131Z,28.11
2022-08-22T08:12:57.892Z,28.62
2022-08-22T08:15:33.104Z,28.72
2022-08-22T08:18:06.534Z,28.81
2022-08-22T08:20:36.752Z,29.26
2022-08-22T08:23:10.849Z,29.22
2022-08-22T08:26:05.870Z,29.47
2022-08-22T08:28:40.062Z,29.78
2022-08-22T08:31:16.620Z,30.24
2022-08-22T08:33:48.430Z,30.45
2022-08-22T08:36:33.632Z,30.67
2022-08-22T08:39:00.853Z,30.67
2022-08-22T08:41:52.693Z,31.33
2022-08-22T08:44:31.849Z,31.47
2022-08-22T08:47:30.468Z,31.77
2022-08-22T08:50:06.585Z,31.75
2022-08-22T08:52:40.759Z,31.87
2022-08-22T08:58:30.476Z,32.68
2022-08-22T09:01:27.685Z,32.40
2022-08-22T09:04:04.869Z,32.74
2022-08-22T09:07:06.069Z,33.11
2022-08-22T09:09:52.806Z,32.33
2022-08-22T09:13:11.854Z,33.26
2022-08-22T09:16:22.802Z,33.63
2022-08-22T09:19:20.570Z,33.10
2022-08-22T09:21:51.193Z,33.68
2022-08-22T09:24:48.915Z,34.18
2022-08-22T09:27:37.385Z,33.14
2022-08-22T09:30:11.678Z,32.73
2022-08-22T09:33:14.555Z,32.65
2022-08-22T09:35:59.454Z,33.81
2022-08-22T09:39:10.970Z,34.32
2022-08-22T09:40:15.989Z,31.76
2022-08-22T09:42:07.943Z,34.26
2022-08-22T09:44:59.445Z,34.27
2022-08-22T09:47:39.305Z,33.10
2022-08-22T09:51:01.658Z,33.95
2022-08-22T09:54:08.903Z,34.84
2022-08-22T09:56:55.968Z,34.52
2022-08-22T09:59:37.464Z,34.54
2022-08-22T10:02:29.669Z,34.66
2022-08-22T10:05:40.310Z,34.78
2022-08-22T10:08:33.279Z,35.43
2022-08-22T10:11:12.058Z,35.13
2022-08-22T10:13:47.811Z,35.57
2022-08-22T10:16:27.652Z,35.63
2022-08-22T10:19:23.143Z,36.02
2022-08-22T10:22:22.501Z,36.34
2022-08-22T10:25:22.626Z,35.23
2022-08-22T10:28:12.313Z,34.94
2022-08-22T10:31:18.348Z,34.74
2022-08-22T10:34:03.504Z,36.11
2022-08-22T10:36:46.146Z,35.39
2022-08-22T10:39:24.659Z,35.54
2022-08-22T10:42:18.560Z,34.20
2022-08-22T10:45:23.555Z,33.24
2022-08-22T10:48:08.936Z,34.03
2022-08-22T10:50:48.245Z,34.09
2022-08-22T10:53:44.158Z,34.22
2022-08-22T10:56:23.946Z,34.20
2022-08-22T10:59:22.917Z,33.40
2022-08-22T11:02:15.026Z,32.33
2022-08-22T11:05:04.951Z,32.64
2022-08-22T11:08:06.573Z,32.20
2022-08-22T11:10:49.267Z,32.96
2022-08-22T11:13:46.837Z,33.27
2022-08-22T11:16:55.314Z,33.62
2022-08-22T11:19:44.781Z,34.84
2022-08-22T11:22:30.755Z,35.50
2022-08-22T11:25:38.555Z,34.72
2022-08-22T11:28:25.216Z,35.36
2022-08-22T11:31:10.204Z,34.84
2022-08-22T11:33:49.710Z,34.90
2022-08-22T11:36:39.803Z,35.43
2022-08-22T11:39:18.259Z,35.86
2022-08-22T11:41:57.707Z,35.70
2022-08-22T11:44:50.514Z,35.90
2022-08-22T11:47:26.689Z,35.96
2022-08-22T11:50:35.215Z,35.79
2022-08-22T11:53:04.613Z,35.40
2022-08-22T11:55:59.291Z,35.50
2022-08-22T11:59:00.950Z,35.94
2022-08-22T12:01:53.076Z,35.28
2022-08-22T12:04:42.575Z,35.07
2022-08-22T12:07:18.069Z,34.86
2022-08-22T12:09:51.001Z,35.23
2022-08-22T12:12:52.688Z,34.78
2022-08-22T12:15:40.566Z,35.42
2022-08-22T12:18:27.584Z,35.22
2022-08-22T12:20:57.666Z,35.57
2022-08-22T12:23:50.561Z,35.35
2022-08-22T12:26:28.629Z,34.80
2022-08-22T12:29:23.325Z,35.78
2022-08-22T12:32:15.640Z,34.98
2022-08-22T12:34:55.733Z,34.26
2022-08-22T12:38:03.622Z,34.71
2022-08-22T12:40:45.340Z,34.50
2022-08-22T12:43:42.752Z,34.33
2022-08-22T12:46:15.065Z,33.90
2022-08-22T12:49:17.437Z,33.85
2022-08-22T12:52:08.839Z,33.73
2022-08-22T12:55:13.672Z,32.89
2022-08-22T12:58:08.377Z,33.25
2022-08-22T13:00:35.856Z,32.59
2022-08-22T13:03:28.379Z,32.35
2022-08-22T13:06:00.355Z,31.93
2022-08-22T13:08:38.421Z,32.71
2022-08-22T13:11:23.364Z,33.76
2022-08-22T13:14:01.393Z,34.09
2022-08-22T13:16:39.156Z,34.31
2022-08-22T13:19:29.433Z,34.95
2022-08-22T13:22:02.582Z,35.61
2022-08-22T13:24:52.369Z,34.14
2022-08-22T13:27:34.450Z,33.06
2022-08-22T13:30:13.584Z,32.86
2022-08-22T13:32:44.668Z,33.17
2022-08-22T13:35:32.885Z,32.75
2022-08-22T13:38:12.326Z,32.66
2022-08-22T13:40:46.260Z,32.70
2022-08-22T13:43:20.945Z,32.35
2022-08-22T13:45:58.278Z,32.28
2022-08-22T13:48:46.758Z,31.80
2022-08-22T13:51:21.065Z,31.65
2022-08-22T13:54:02.213Z,31.39
2022-08-22T13:56:52.624Z,31.25
2022-08-22T13:59:50.338Z,31.43
2022-08-22T14:02:43.475Z,30.08
2022-08-22T14:05:36.745Z,29.53
2022-08-22T14:08:21.725Z,28.88
2022-08-22T14:11:11.372Z,29.24
2022-08-22T14:13:45.963Z,29.22
2022-08-22T14:16:21.015Z,29.50
2022-08-22T14:18:55.285Z,29.64
2022-08-22T14:21:51.392Z,29.66
2022-08-22T14:24:25.878Z,29.55
2022-08-22T14:27:14.544Z,29.34
2022-08-22T14:29:50.881Z,30.70
2022-08-22T14:32:22.796Z,30.77
2022-08-22T14:35:05.676Z,31.64
2022-08-22T14:37:42.896Z,31.47
2022-08-22T14:40:34.359Z,31.52
2022-08-22T14:43:09.622Z,31.33
2022-08-22T14:45:45.667Z,31.35
2022-08-22T14:48:40.668Z,31.87
2022-08-22T14:51:22.034Z,31.44
2022-08-22T14:53:50.865Z,31.55
2022-08-22T14:56:27.974Z,31.70
2022-08-22T14:59:01.350Z,31.51
2022-08-22T15:01:32.730Z,30.88
2022-08-22T15:04:11.232Z,30.20
2022-08-22T15:07:09.171Z,29.97
2022-08-22T15:09:50.986Z,29.87
2022-08-22T15:12:34.380Z,30.21
2022-08-22T15:15:13.339Z,30.00
2022-08-22T15:17:50.890Z,30.05
2022-08-22T15:20:28.662Z,29.97
2022-08-22T15:23:03.003Z,30.08
2022-08-22T15:25:43.032Z,29.96
2022-08-22T15:28:20.307Z,30.05
2022-08-22T15:31:03.508Z,29.76
2022-08-22T15:33:43.236Z,30.22
2022-08-22T15:36:27.446Z,29.91
2022-08-22T15:39:17.245Z,29.60
2022-08-22T15:41:47.937Z,29.64
2022-08-22T15:44:30.830Z,30.08
2022-08-22T15:47:34.842Z,30.21
2022-08-22T15:50:15.460Z,30.86
2022-08-22T15:53:14.857Z,30.48
2022-08-22T15:56:05.096Z,29.88
2022-08-22T15:58:37.621Z,30.10
2022-08-22T16:01:12.592Z,31.00
2022-08-22T16:03:58.486Z,30.57
2022-08-22T16:06:48.248Z,30.56
2022-08-22T16:09:46.581Z,30.58
2022-08-22T16:12:51.022Z,30.73
2022-08-22T16:15:54.395Z,30.56
2022-08-22T16:18:39.473Z,30.54
2022-08-22T16:21:18.255Z,30.47
2022-08-22T16:23:51.635Z,30.13
2022-08-22T16:26:43.244Z,30.04
2022-08-22T16:29:14.739Z,30.97
2022-08-22T16:31:45.102Z,31.02
2022-08-22T16:34:18.677Z,30.82
2022-08-22T16:36:55.535Z,31.59
2022-08-22T16:39:22.767Z,31.35
2022-08-22T16:42:22.713Z,29.67
2022-08-22T16:44:54.873Z,31.16
2022-08-22T16:47:42.175Z,30.82
2022-08-22T16:50:27.292Z,30.09
2022-08-22T16:53:31.506Z,31.46
2022-08-22T16:56:25.862Z,31.64
2022-08-22T16:59:23.101Z,31.56
2022-08-22T17:02:07.965Z,31.75
2022-08-22T17:04:44.430Z,31.74
2022-08-22T17:07:32.023Z,32.15
2022-08-22T17:10:17.798Z,32.36
2022-08-22T17:13:10.452Z,30.96
2022-08-22T17:15:58.001Z,30.32
2022-08-22T17:19:05.245Z,31.24
2022-08-22T17:21:51.936Z,30.05
2022-08-22T17:24:36.772Z,31.53
2022-08-22T17:27:16.059Z,31.42
2022-08-22T17:29:45.950Z,31.12
2022-08-22T17:32:24.550Z,29.94
2022-08-22T17:35:20.828Z,31.36
2022-08-22T17:38:00.600Z,29.74
2022-08-22T17:40:37.027Z,31.06
2022-08-22T17:43:10.125Z,31.37
2022-08-22T17:45:45.994Z,30.62
2022-08-22T17:48:13.386Z,29.53
2022-08-22T17:50:48.612Z,30.95
2022-08-22T17:53:24.615Z,29.43
2022-08-22T17:56:19.641Z,30.42
2022-08-22T17:59:07.053Z,29.18
2022-08-22T18:01:48.551Z,29.85
2022-08-22T18:04:39.339Z,28.97
2022-08-22T18:07:15.674Z,29.22
2022-08-22T18:09:51.785Z,29.94
2022-08-22T18:12:48.421Z,28.26
2022-08-22T18:15:29.958Z,28.83
2022-08-22T18:18:05.271Z,27.79
2022-08-22T18:20:46.317Z,27.86
2022-08-22T18:23:36.089Z,27.44
2022-08-22T18:26:31.994Z,27.13
2022-08-22T18:29:06.607Z,26.96
2022-08-22T18:32:07.483Z,26.58
2022-08-22T18:34:52.293Z,27.15
2022-08-22T18:38:00.108Z,26.18
2022-08-22T18:40:30.915Z,25.81
2022-08-22T18:43:13.594Z,26.21
2022-08-22T18:45:46.729Z,26.06
2022-08-22T18:48:59.383Z,25.72
2022-08-22T18:51:38.146Z,26.11
2022-08-22T18:54:07.206Z,25.38
2022-08-22T18:56:50.976Z,25.00
2022-08-22T18:59:26.685Z,25.12
2022-08-22T19:02:22.768Z,25.30
2022-08-22T19:05:13.045Z,24.67
2022-08-22T19:08:11.263Z,25.17
2022-08-22T19:10:47.284Z,24.46
2022-08-22T19:13:36.226Z,24.18
2022-08-22T19:16:21.175Z,23.92
2022-08-22T19:18:51.686Z,23.93
2022-08-22T19:21:48.477Z,24.35
2022-08-22T19:24:28.088Z,23.74
2022-08-22T19:27:07.658Z,23.73
2022-08-22T19:29:37.654Z,24.21
2022-08-22T19:32:12.968Z,23.60
2022-08-22T19:34:47.716Z,23.37
2022-08-22T19:37:33.341Z,23.22
2022-08-22T19:40:05.045Z,23.84
2022-08-22T19:42:36.434Z,23.60
2022-08-22T19:45:10.643Z,23.20
2022-08-22T19:47:42.644Z,23.04
2022-08-22T19:50:16.762Z,23.79
2022-08-22T19:53:00.009Z,23.38
2022-08-22T19:55:39.202Z,23.10
2022-08-22T19:58:32.535Z,22.95
2022-08-22T20:01:27.210Z,22.90
2022-08-22T20:04:15.355Z,23.98
2022-08-22T20:07:14.376Z,23.40
2022-08-22T20:10:19.816Z,23.55
2022-08-22T20:13:18.433Z,23.66
2022-08-22T20:16:08.014Z,23.11
2022-08-22T20:19:06.390Z,22.94
2022-08-22T20:21:48.557Z,22.85
2022-08-22T20:24:29.504Z,23.26
2022-08-22T20:27:15.752Z,23.69
2022-08-22T20:29:52.027Z,23.10
2022-08-22T20:32:22.256Z,24.01
2022-08-22T20:34:55.853Z,23.29
2022-08-22T20:37:45.291Z,23.03
2022-08-22T20:40:55.306Z,22.88
2022-08-22T20:43:37.881Z,23.24
2022-08-22T20:46:24.105Z,23.51
2022-08-22T20:48:54.901Z,22.95
2022-08-22T20:51:25.722Z,23.58
2022-08-22T20:54:16.833Z,23.30
2022-08-22T20:56:56.281Z,22.91
2022-08-22T20:59:29.916Z,22.74
2022-08-22T21:02:03.567Z,22.65
2022-08-22T21:04:45.928Z,22.87
2022-08-22T21:07:21.293Z,23.52
2022-08-22T21:10:15.899Z,22.86
2022-08-22T21:13:02.166Z,22.64
2022-08-22T21:15:32.141Z,24.82
2022-08-22T21:18:00.515Z,23.53
2022-08-22T21:20:33.330Z,22.94
2022-08-22T21:23:07.052Z,22.72
2022-08-22T21:25:48.983Z,23.30
2022-08-22T21:28:57.237Z,24.17
2022-08-22T21:31:28.966Z,23.07
2022-08-22T21:33:57.492Z,22.74
2022-08-22T21:36:28.761Z,22.84
2022-08-22T21:39:06.878Z,24.60
2022-08-22T21:41:52.849Z,23.04
2022-08-22T21:44:32.276Z,22.58
2022-08-22T21:47:31.491Z,23.86
2022-08-22T21:50:28.703Z,23.13
2022-08-22T21:52:55.946Z,22.60
2022-08-22T21:55:30.783Z,22.23
2022-08-22T21:58:10.255Z,24.20
2022-08-22T22:01:00.420Z,22.89
2022-08-22T22:03:30.735Z,22.37
2022-08-22T22:06:03.393Z,22.18
2022-08-22T22:08:32.034Z,22.02
2022-08-22T22:11:08.614Z,21.90
2022-08-22T22:13:37.743Z,22.42
2022-08-22T22:16:07.235Z,23.89
2022-08-22T22:18:37.637Z,22.50
2022-08-22T22:21:06.019Z,23.85
2022-08-22T22:23:33.910Z,22.84
2022-08-22T22:26:05.300Z,22.10
2022-08-22T22:28:42.067Z,21.83
2022-08-22T22:31:09.664Z,21.67
2022-08-22T22:33:39.365Z,21.53
2022-08-22T22:36:28.969Z,21.41
2022-08-22T22:38:56.459Z,22.07
2022-08-22T22:41:25.894Z,22.12
2022-08-22T22:43:54.483Z,21.61
2022-08-22T22:46:23.672Z,21.41
2022-08-22T22:48:51.176Z,21.33
2022-08-22T22:51:18.441Z,22.74
2022-08-22T22:53:48.885Z,21.78
2022-08-22T22:56:21.613Z,21.36
2022-08-22T22:58:58.964Z,21.20
2022-08-22T23:01:27.501Z,21.14
2022-08-22T23:03:57.742Z,22.04
2022-08-22T23:06:28.226Z,21.42
2022-08-22T23:08:56.171Z,21.14
2022-08-22T23:11:29.477Z,20.95
2022-08-22T23:13:57.409Z,20.84
2022-08-22T23:16:27.504Z,21.91
2022-08-22T23:18:55.600Z,21.36
2022-08-22T23:21:26.716Z,20.96
2022-08-22T23:23:56.340Z,21.17
2022-08-22T23:26:24.947Z,21.64
2022-08-22T23:28:52.299Z,21.03
2022-08-22T23:31:42.354Z,20.69
2022-08-22T23:34:13.373Z,20.52
2022-08-22T23:36:43.863Z,20.35
2022-08-22T23:39:12.648Z,20.24
2022-08-22T23:41:40.999Z,20.49
2022-08-22T23:44:13.446Z,20.85
2022-08-22T23:46:44.243Z,20.30
2022-08-22T23:49:12.179Z,20.18
2022-08-22T23:51:39.905Z,20.85
2022-08-22T23:54:07.835Z,20.32
2022-08-22T23:56:44.589Z,20.05
2022-08-22T23:59:19.409Z,19.95
